Terminal Aerodrome Forecast
Issued by NWS

Home | Current Version | Previous Version | Text Only | Print | Product List | Glossary On
Versions: 1 2 3 4 5 6 7 8 9 10 11 12 13 14 15 16 17 18 19 20 21 22 23 24 25 26 27 28 29 30 31 32 33 34 35 36 37 38
000
FTUS43 KDLH 060129 AAB
TAFHIB
TAF AMD
KHIB 060129Z 0601/0624 13010KT 3SM -SN BR OVC005
     FM060300 10010G14KT P6SM -SN BKN008 OVC014
     FM060600 14010G17KT P6SM VCSH OVC026
     FM060900 18009KT P6SM VCSH OVC090
     FM061600 20010G20KT P6SM VCSH OVC015
     FM062000 20010G17KT 5SM -SN BR OVC010=

USA.gov is the U.S. government's official web portal to all federal, state and local government web resources and services.